createdAt,value
2018-10-17T00:00:20.486Z,10.90
2018-10-17T00:05:42.275Z,10.80
2018-10-17T00:11:05.680Z,10.80
2018-10-17T00:16:27.717Z,10.80
2018-10-17T00:21:50.489Z,10.70
2018-10-17T00:27:12.564Z,10.70
2018-10-17T00:32:34.769Z,10.70
2018-10-17T00:38:13.435Z,10.70
2018-10-17T00:43:37.209Z,10.70
2018-10-17T00:48:59.378Z,10.70
2018-10-17T00:54:22.686Z,10.70
2018-10-17T00:59:44.921Z,10.70
2018-10-17T01:05:06.821Z,10.70
2018-10-17T01:10:52.125Z,10.70
2018-10-17T01:16:30.197Z,10.70
2018-10-17T01:21:52.169Z,10.80
2018-10-17T01:27:15.316Z,10.80
2018-10-17T01:32:37.500Z,10.80
2018-10-17T01:37:59.689Z,10.70
2018-10-17T01:43:21.482Z,10.70
2018-10-17T01:48:43.253Z,10.80
2018-10-17T01:54:05.342Z,10.70
2018-10-17T01:59:27.679Z,10.70
2018-10-17T02:04:49.453Z,10.60
2018-10-17T02:10:11.234Z,10.60
2018-10-17T02:15:33.309Z,10.50
2018-10-17T02:20:55.478Z,10.60
2018-10-17T02:26:17.503Z,10.60
2018-10-17T02:31:39.458Z,10.60
2018-10-17T02:37:01.591Z,10.60
2018-10-17T02:42:23.616Z,10.60
2018-10-17T02:47:45.951Z,10.50
2018-10-17T02:53:07.891Z,10.50
2018-10-17T02:58:29.909Z,10.50
2018-10-17T03:03:52.126Z,10.40
2018-10-17T03:09:14.105Z,10.30
2018-10-17T03:14:35.990Z,10.30
2018-10-17T03:19:58.338Z,10.40
2018-10-17T03:25:20.193Z,10.40
2018-10-17T03:30:42.357Z,10.40
2018-10-17T03:36:04.192Z,10.30
2018-10-17T03:41:26.327Z,10.40
2018-10-17T03:46:48.163Z,10.30
2018-10-17T03:52:10.204Z,10.20
2018-10-17T03:57:31.977Z,10.20
2018-10-17T04:02:54.166Z,10.10
2018-10-17T04:08:15.963Z,10.00
2018-10-17T04:13:38.068Z,10.00
2018-10-17T04:19:00.038Z,10.00
2018-10-17T04:24:22.148Z,10.00
2018-10-17T04:29:44.167Z,9.90
2018-10-17T04:35:06.288Z,9.80
2018-10-17T04:40:28.329Z,9.80
2018-10-17T04:45:50.323Z,9.80
2018-10-17T04:51:12.111Z,9.80
2018-10-17T04:56:34.279Z,9.80
2018-10-17T05:01:56.030Z,9.80
2018-10-17T05:07:18.140Z,9.80
2018-10-17T05:12:40.031Z,9.70
2018-10-17T05:18:02.198Z,9.60
2018-10-17T05:23:24.102Z,9.50
2018-10-17T05:28:46.766Z,9.50
2018-10-17T05:34:09.183Z,9.50
2018-10-17T05:39:30.964Z,9.40
2018-10-17T05:44:53.274Z,9.40
2018-10-17T05:50:15.206Z,9.40
2018-10-17T05:55:37.546Z,9.30
2018-10-17T06:00:59.267Z,9.20
2018-10-17T06:06:21.477Z,9.20
2018-10-17T06:11:43.414Z,9.30
2018-10-17T06:17:05.843Z,9.30
2018-10-17T06:22:27.581Z,9.30
2018-10-17T06:27:49.722Z,9.30
2018-10-17T06:33:11.537Z,9.40
2018-10-17T06:38:33.665Z,9.40
2018-10-17T06:43:55.794Z,9.40
2018-10-17T06:49:18.183Z,9.40
2018-10-17T06:54:40.678Z,9.40
2018-10-17T07:00:02.726Z,9.40
2018-10-17T07:05:25.601Z,9.40
2018-10-17T07:10:47.802Z,9.50
2018-10-17T07:16:09.666Z,9.40
2018-10-17T07:21:32.019Z,9.40
2018-10-17T07:26:53.835Z,9.40
2018-10-17T07:32:15.992Z,9.40
2018-10-17T07:37:37.891Z,9.50
2018-10-17T07:42:59.994Z,9.60
2018-10-17T07:48:21.903Z,9.80
2018-10-17T07:53:44.038Z,9.90
2018-10-17T07:59:05.853Z,10.00
2018-10-17T08:04:28.778Z,10.20
2018-10-17T08:09:51.031Z,10.40
2018-10-17T08:15:14.034Z,10.70
2018-10-17T08:20:35.795Z,10.90
2018-10-17T08:26:01.549Z,11.10
2018-10-17T08:31:23.690Z,11.40
2018-10-17T08:36:46.004Z,11.50
2018-10-17T08:42:09.332Z,11.70
2018-10-17T08:47:31.266Z,11.90
2018-10-17T08:52:53.418Z,12.10
2018-10-17T08:58:17.011Z,12.30
2018-10-17T09:03:39.167Z,12.50
2018-10-17T09:09:01.153Z,12.70
2018-10-17T09:15:26.437Z,12.80
2018-10-17T09:20:49.144Z,13.00
2018-10-17T09:26:10.846Z,13.20
2018-10-17T09:31:32.894Z,13.50
2018-10-17T09:36:54.669Z,13.90
2018-10-17T09:42:16.992Z,14.20
2018-10-17T09:47:38.849Z,14.50
2018-10-17T09:53:00.878Z,14.80
2018-10-17T09:58:22.750Z,15.10
2018-10-17T10:03:45.630Z,15.40
2018-10-17T10:09:09.521Z,15.50
2018-10-17T10:14:31.266Z,15.50
2018-10-17T10:19:53.370Z,15.60
2018-10-17T10:25:15.309Z,15.60
2018-10-17T10:30:37.334Z,15.60
2018-10-17T10:36:00.490Z,15.60
2018-10-17T10:41:22.299Z,15.80
2018-10-17T10:46:44.430Z,16.30
2018-10-17T10:52:06.485Z,16.40
2018-10-17T10:57:28.595Z,16.40
2018-10-17T11:02:50.386Z,16.40
2018-10-17T11:08:12.784Z,16.50
2018-10-17T11:13:35.733Z,16.90
2018-10-17T11:18:58.009Z,17.20
2018-10-17T11:24:19.937Z,17.10
2018-10-17T11:29:41.977Z,17.00
2018-10-17T11:35:04.118Z,17.00
2018-10-17T11:40:27.381Z,17.20
2018-10-17T11:45:49.383Z,17.40
2018-10-17T11:51:11.331Z,17.50
2018-10-17T11:56:33.389Z,17.50
2018-10-17T12:01:55.150Z,17.40
2018-10-17T12:07:17.330Z,17.40
2018-10-17T12:12:40.926Z,17.40
2018-10-17T12:18:03.240Z,17.80
2018-10-17T12:23:25.075Z,18.00
2018-10-17T12:28:47.231Z,18.00
2018-10-17T12:34:09.068Z,18.20
2018-10-17T12:39:31.406Z,18.10
2018-10-17T12:44:53.238Z,18.30
2018-10-17T12:50:15.568Z,18.20
2018-10-17T12:55:37.825Z,18.00
2018-10-17T13:00:59.834Z,18.10
2018-10-17T13:06:22.010Z,17.90
2018-10-17T13:11:44.092Z,17.60
2018-10-17T13:17:07.348Z,17.50
2018-10-17T13:22:29.971Z,17.50
2018-10-17T13:27:52.002Z,17.30
2018-10-17T13:33:14.491Z,17.30
2018-10-17T13:38:36.708Z,17.50
2018-10-17T13:43:58.906Z,17.60
2018-10-17T13:49:20.934Z,17.60
2018-10-17T13:54:43.091Z,17.50
2018-10-17T14:00:05.443Z,17.50
2018-10-17T14:05:27.410Z,17.40
2018-10-17T14:10:49.635Z,17.40
2018-10-17T14:16:11.689Z,17.50
2018-10-17T14:21:34.136Z,17.50
2018-10-17T14:26:56.088Z,17.70
2018-10-17T14:32:18.256Z,17.80
2018-10-17T14:37:40.110Z,17.70
2018-10-17T14:43:02.252Z,17.50
2018-10-17T14:48:24.063Z,17.40
2018-10-17T14:53:46.359Z,17.40
2018-10-17T14:59:08.359Z,17.30
2018-10-17T15:04:30.365Z,17.10
2018-10-17T15:09:52.192Z,17.10
2018-10-17T15:15:14.564Z,17.10
2018-10-17T15:20:36.776Z,16.90
2018-10-17T15:25:59.146Z,16.90
2018-10-17T15:31:21.307Z,16.90
2018-10-17T15:36:43.541Z,16.90
2018-10-17T15:42:05.478Z,16.90
2018-10-17T15:47:27.693Z,16.90
2018-10-17T15:52:49.658Z,16.90
2018-10-17T15:58:12.255Z,16.80
2018-10-17T16:03:34.469Z,16.70
2018-10-17T16:08:56.415Z,16.60
2018-10-17T16:14:18.713Z,16.70
2018-10-17T16:19:40.805Z,16.60
2018-10-17T16:25:02.954Z,16.60
2018-10-17T16:30:25.028Z,16.60
2018-10-17T16:35:47.190Z,16.60
2018-10-17T16:41:09.560Z,16.40
2018-10-17T16:46:31.587Z,16.40
2018-10-17T16:51:53.427Z,16.30
2018-10-17T16:57:15.222Z,16.30
2018-10-17T17:02:39.489Z,16.20
2018-10-17T17:08:01.747Z,16.10
2018-10-17T17:13:23.647Z,16.10
2018-10-17T17:18:45.854Z,16.20
2018-10-17T17:24:08.031Z,16.20
2018-10-17T17:29:30.196Z,16.00
2018-10-17T17:34:53.357Z,16.00
2018-10-17T17:40:16.092Z,16.00
2018-10-17T17:45:38.801Z,16.00
2018-10-17T17:51:01.252Z,16.00
2018-10-17T17:56:24.642Z,16.00
2018-10-17T18:01:46.946Z,15.90
2018-10-17T18:07:10.755Z,15.90
2018-10-17T18:12:32.866Z,15.80
2018-10-17T18:17:54.913Z,15.70
2018-10-17T18:23:17.014Z,15.50
2018-10-17T18:28:38.821Z,15.50
2018-10-17T18:34:00.850Z,15.50
2018-10-17T18:39:22.818Z,15.40
2018-10-17T18:44:44.941Z,15.40
2018-10-17T18:50:07.248Z,15.40
2018-10-17T18:55:29.240Z,15.40
2018-10-17T19:00:50.929Z,15.30
2018-10-17T19:06:13.111Z,15.30
2018-10-17T19:11:35.328Z,15.20
2018-10-17T19:16:57.391Z,15.10
2018-10-17T19:22:19.666Z,14.90
2018-10-17T19:27:41.783Z,14.90
2018-10-17T19:33:04.063Z,14.90
2018-10-17T19:38:25.898Z,14.90
2018-10-17T19:43:47.862Z,14.80
2018-10-17T19:49:10.255Z,14.60
2018-10-17T19:54:31.970Z,14.60
2018-10-17T19:59:54.122Z,14.50
2018-10-17T20:05:15.875Z,14.40
2018-10-17T20:10:38.021Z,14.40
2018-10-17T20:16:00.540Z,14.20
2018-10-17T20:21:22.982Z,14.00
2018-10-17T20:26:45.026Z,13.90
2018-10-17T20:32:07.083Z,13.90
2018-10-17T20:37:29.136Z,13.80
2018-10-17T20:42:51.218Z,13.70
2018-10-17T20:48:13.432Z,13.70
2018-10-17T20:53:35.569Z,13.50
2018-10-17T20:58:57.895Z,13.50
2018-10-17T21:04:20.125Z,13.40
2018-10-17T21:09:43.574Z,13.40
2018-10-17T21:15:06.003Z,13.30
2018-10-17T21:20:32.007Z,13.30
2018-10-17T21:25:53.795Z,13.10
2018-10-17T21:31:16.039Z,13.10
2018-10-17T21:36:38.000Z,13.00
2018-10-17T21:42:00.359Z,13.00
2018-10-17T21:47:22.359Z,12.90
2018-10-17T21:52:44.454Z,12.90
2018-10-17T21:58:07.710Z,12.70
2018-10-17T22:03:29.870Z,12.70
2018-10-17T22:08:51.736Z,12.70
2018-10-17T22:14:14.013Z,12.60
2018-10-17T22:19:36.779Z,12.60
2018-10-17T22:24:59.512Z,12.50
2018-10-17T22:30:21.279Z,12.50
2018-10-17T22:35:44.522Z,12.40
2018-10-17T22:41:06.613Z,12.40
2018-10-17T22:46:29.683Z,12.40
2018-10-17T22:51:51.714Z,12.40
2018-10-17T22:57:13.730Z,12.30
2018-10-17T23:02:35.797Z,12.30
2018-10-17T23:07:58.451Z,12.30
2018-10-17T23:13:20.415Z,12.30
2018-10-17T23:18:42.751Z,12.20
2018-10-17T23:24:04.538Z,12.30
2018-10-17T23:29:26.939Z,12.30
2018-10-17T23:34:48.846Z,12.30
2018-10-17T23:40:11.033Z,12.40
2018-10-17T23:45:33.002Z,12.30
2018-10-17T23:50:54.950Z,12.30
2018-10-17T23:56:16.831Z,12.30
